Time;durP1;ratioP1;P1;durP2;ratioP2;P2;SDS_P1;SDS_P2;PMS_P1;PMS_P2;Temp;Humidity;BMP_temperature;BMP_pressure;BME280_temperature;BME280_humidity;BME280_pressure;Samples;Min_cycle;Max_cycle;Signal;HPM_P1;HPM_P2
2024/04/19 00:01:21;;;;;;;9.93;4.83;;;8.60;99.90;;;;;;812766;177;26439;-81
2024/04/19 00:03:48;;;;;;;19.63;9.40;;;8.60;99.90;;;;;;812525;174;26608;-82
2024/04/19 00:06:14;;;;;;;15.40;8.70;;;8.60;99.90;;;;;;812413;174;26460;-82
2024/04/19 00:08:41;;;;;;;7.93;4.87;;;8.60;99.90;;;;;;812314;174;27062;-82
2024/04/19 00:11:07;;;;;;;15.67;7.13;;;8.60;99.90;;;;;;812311;177;26442;-83
2024/04/19 00:13:34;;;;;;;13.13;6.83;;;8.70;99.90;;;;;;812057;174;26425;-83
2024/04/19 00:16:01;;;;;;;27.50;12.37;;;8.70;99.90;;;;;;812045;174;26631;-82
2024/04/19 00:18:28;;;;;;;35.33;16.07;;;8.60;99.90;;;;;;812213;174;26478;-83
2024/04/19 00:20:56;;;;;;;83.60;31.67;;;8.70;99.90;;;;;;812068;177;26476;-84
2024/04/19 00:23:23;;;;;;;16.23;8.37;;;8.70;99.90;;;;;;812059;174;26451;-82
2024/04/19 00:25:49;;;;;;;14.87;7.60;;;8.70;99.90;;;;;;809342;174;26457;-81
2024/04/19 00:28:16;;;;;;;15.47;7.50;;;8.70;99.90;;;;;;802439;179;26420;-82
2024/04/19 00:30:43;;;;;;;11.90;7.17;;;8.70;99.90;;;;;;802459;179;26422;-82
2024/04/19 00:33:09;;;;;;;21.90;11.53;;;8.70;99.90;;;;;;802031;179;26593;-80
2024/04/19 00:35:37;;;;;;;19.73;9.67;;;8.70;99.90;;;;;;802032;179;26457;-80
2024/04/19 00:38:04;;;;;;;95.53;37.53;;;8.60;99.90;;;;;;801953;178;26432;-81
2024/04/19 00:40:30;;;;;;;36.77;20.00;;;8.60;99.90;;;;;;802251;179;26421;-80
2024/04/19 00:42:57;;;;;;;58.03;27.37;;;8.60;99.90;;;;;;802054;179;26582;-80
2024/04/19 00:45:29;;;;;;;15.47;8.20;;;8.50;99.90;;;;;;801865;179;26498;-81
2024/04/19 00:47:56;;;;;;;12.00;7.33;;;8.50;99.90;;;;;;801738;179;26992;-80
2024/04/19 00:50:22;;;;;;;14.50;9.27;;;8.50;99.90;;;;;;810351;177;26542;-80
2024/04/19 00:52:49;;;;;;;11.43;7.10;;;8.50;99.90;;;;;;813090;174;26460;-81
2024/04/19 00:55:16;;;;;;;10.77;7.87;;;8.50;99.90;;;;;;814538;177;26462;-80
2024/04/19 00:57:42;;;;;;;10.90;7.60;;;8.40;99.90;;;;;;814186;177;26446;-80
2024/04/19 01:00:10;;;;;;;17.03;8.90;;;8.40;99.90;;;;;;814233;174;26587;-82
2024/04/19 01:02:36;;;;;;;10.03;7.47;;;8.30;99.90;;;;;;814230;176;26978;-83
2024/04/19 01:05:03;;;;;;;12.10;7.60;;;8.30;99.90;;;;;;814077;177;26479;-81
2024/04/19 01:07:30;;;;;;;12.40;7.90;;;8.20;99.90;;;;;;816771;174;26419;-81
2024/04/19 01:09:56;;;;;;;11.80;7.60;;;8.20;99.90;;;;;;816339;176;26434;-82
2024/04/19 01:12:23;;;;;;;12.80;7.37;;;8.20;99.90;;;;;;815727;176;26450;-82
2024/04/19 01:14:50;;;;;;;24.93;13.73;;;8.10;99.90;;;;;;815793;176;26488;-81
2024/04/19 01:17:16;;;;;;;17.60;9.50;;;8.20;99.90;;;;;;814787;174;26446;-82
2024/04/19 01:19:43;;;;;;;20.67;12.43;;;8.10;99.90;;;;;;812068;174;26430;-80
2024/04/19 01:22:10;;;;;;;19.27;11.00;;;7.90;99.90;;;;;;812136;174;26590;-81
2024/04/19 01:24:39;;;;;;;17.50;10.47;;;7.90;99.90;;;;;;811919;176;26520;-82
2024/04/19 01:27:09;;;;;;;18.47;9.47;;;7.80;99.90;;;;;;811539;177;26596;-82
2024/04/19 01:29:33;;;;;;;16.40;9.53;;;7.80;99.90;;;;;;811627;177;26438;-82
2024/04/19 01:32:01;;;;;;;18.10;9.43;;;7.70;99.90;;;;;;811854;177;26449;-82
2024/04/19 01:34:26;;;;;;;17.70;11.23;;;7.70;99.90;;;;;;811601;174;26486;-81
2024/04/19 01:36:53;;;;;;;18.00;12.27;;;7.60;99.90;;;;;;811726;177;26598;-81
2024/04/19 01:39:19;;;;;;;17.93;11.30;;;7.60;99.90;;;;;;811835;177;27026;-80
2024/04/19 01:41:46;;;;;;;15.40;10.23;;;7.50;99.90;;;;;;811366;174;26431;-82
2024/04/19 01:44:13;;;;;;;105.67;42.80;;;7.50;99.90;;;;;;801792;179;27087;-82
2024/04/19 01:46:39;;;;;;;70.27;27.43;;;7.50;99.90;;;;;;801982;179;26444;-82
2024/04/19 01:49:07;;;;;;;70.10;26.23;;;7.40;99.90;;;;;;802008;179;26418;-81
2024/04/19 01:51:33;;;;;;;21.00;12.10;;;7.40;99.90;;;;;;801973;179;26429;-82
2024/04/19 01:54:00;;;;;;;32.13;17.27;;;7.50;99.90;;;;;;803568;178;26451;-82
2024/04/19 01:56:26;;;;;;;41.57;20.07;;;7.50;99.90;;;;;;810023;177;26461;-81
2024/04/19 01:58:53;;;;;;;35.70;18.50;;;7.50;99.90;;;;;;810257;177;26427;-80
2024/04/19 02:01:19;;;;;;;18.33;11.80;;;7.50;99.90;;;;;;810706;177;26434;-84
2024/04/19 02:03:46;;;;;;;25.03;13.13;;;7.50;99.90;;;;;;811399;174;26438;-82
2024/04/19 02:06:13;;;;;;;26.40;16.47;;;7.60;99.90;;;;;;810340;177;26438;-80
2024/04/19 02:08:39;;;;;;;24.87;13.33;;;7.60;99.90;;;;;;812345;177;26435;-83
2024/04/19 02:11:06;;;;;;;19.83;11.50;;;7.60;99.90;;;;;;811425;174;26440;-82
2024/04/19 02:13:33;;;;;;;15.10;9.80;;;7.60;99.90;;;;;;807419;177;26428;-82
2024/04/19 02:15:59;;;;;;;14.37;10.57;;;7.60;99.90;;;;;;811658;177;26456;-82
2024/04/19 02:18:26;;;;;;;10.50;7.40;;;7.60;99.90;;;;;;811676;175;26435;-81
2024/04/19 02:20:52;;;;;;;11.93;8.97;;;7.50;99.90;;;;;;799053;177;26439;-82
2024/04/19 02:23:23;;;;;;;36.73;17.97;;;7.40;99.90;;;;;;812893;174;26711;-83
2024/04/19 02:25:50;;;;;;;51.00;20.83;;;7.40;99.90;;;;;;801550;177;26480;-81
2024/04/19 02:30:55;;;;;;;19.43;12.70;;;7.30;99.90;;;;;;812337;177;26408;-83
2024/04/19 02:33:19;;;;;;;18.27;10.50;;;7.20;99.90;;;;;;812211;177;26564;-80
2024/04/19 02:35:46;;;;;;;20.73;14.97;;;7.20;99.90;;;;;;811951;177;26451;-82
2024/04/19 02:38:12;;;;;;;21.10;14.43;;;7.20;99.90;;;;;;811842;174;26442;-82
2024/04/19 02:40:39;;;;;;;16.33;11.53;;;7.10;99.90;;;;;;811541;177;26448;-81
2024/04/19 02:43:06;;;;;;;17.37;12.47;;;7.10;99.90;;;;;;810446;177;26435;-80
2024/04/19 02:45:32;;;;;;;15.97;11.03;;;7.10;99.90;;;;;;807466;177;26446;-82
2024/04/19 02:47:59;;;;;;;20.63;12.57;;;7.10;99.90;;;;;;805268;177;27048;-80
2024/04/19 02:50:25;;;;;;;18.70;11.77;;;7.10;99.90;;;;;;811913;177;26460;-79
2024/04/19 02:52:52;;;;;;;13.47;9.47;;;7.00;99.90;;;;;;811926;177;26427;-81
2024/04/19 02:55:18;;;;;;;14.93;10.63;;;6.90;99.90;;;;;;811427;177;26599;-79
2024/04/19 02:57:45;;;;;;;12.07;9.97;;;6.90;99.90;;;;;;811503;177;26474;-81
2024/04/19 03:00:12;;;;;;;16.17;11.20;;;7.00;99.90;;;;;;807814;177;26440;-81
2024/04/19 03:02:38;;;;;;;12.50;9.00;;;6.90;99.90;;;;;;807623;177;26446;-82
2024/04/19 03:05:05;;;;;;;15.63;10.27;;;7.00;99.90;;;;;;809988;177;26481;-81
2024/04/19 03:07:32;;;;;;;15.60;12.40;;;6.90;99.90;;;;;;802090;179;26416;-79
2024/04/19 03:09:58;;;;;;;15.93;10.90;;;6.90;99.90;;;;;;809140;177;26510;-83
2024/04/19 03:12:25;;;;;;;13.27;9.03;;;6.90;99.90;;;;;;810588;177;26431;-81
2024/04/19 03:14:52;;;;;;;14.47;9.97;;;6.90;99.90;;;;;;811202;177;26488;-82
2024/04/19 03:17:18;;;;;;;21.03;13.63;;;7.00;99.90;;;;;;808766;174;26428;-79
2024/04/19 03:19:45;;;;;;;17.77;12.57;;;7.00;99.90;;;;;;805762;177;26441;-81
2024/04/19 03:22:11;;;;;;;17.67;13.17;;;7.00;99.90;;;;;;801902;177;26483;-82
2024/04/19 03:24:38;;;;;;;18.80;12.93;;;7.00;99.90;;;;;;811135;177;26455;-82
2024/04/19 03:27:05;;;;;;;16.87;12.23;;;7.00;99.90;;;;;;798837;177;26421;-81
2024/04/19 03:29:31;;;;;;;19.33;12.30;;;7.00;99.90;;;;;;798297;177;26469;-81
2024/04/19 03:31:58;;;;;;;16.53;11.33;;;7.00;99.90;;;;;;809254;176;26447;-81
2024/04/19 03:34:25;;;;;;;21.80;11.80;;;6.90;99.90;;;;;;813016;176;26451;-79
2024/04/19 03:36:51;;;;;;;17.40;12.40;;;6.90;99.90;;;;;;806679;177;26407;-79
2024/04/19 03:39:18;;;;;;;14.17;9.40;;;6.90;99.90;;;;;;809639;174;26477;-82
2024/04/19 03:41:46;;;;;;;26.40;14.67;;;6.90;99.90;;;;;;808129;177;26435;-80
2024/04/19 03:46:43;;;;;;;19.27;13.37;;;6.90;99.90;;;;;;808541;177;26513;-79
2024/04/19 03:49:10;;;;;;;17.53;10.67;;;6.80;99.90;;;;;;809444;177;26437;-80
2024/04/19 03:51:36;;;;;;;10.63;7.97;;;6.80;99.90;;;;;;812009;177;26427;-81
2024/04/19 03:54:03;;;;;;;17.37;9.47;;;6.80;99.90;;;;;;810864;174;26475;-81
2024/04/19 03:56:30;;;;;;;12.73;8.73;;;6.80;99.90;;;;;;808501;176;26459;-83
2024/04/19 03:58:56;;;;;;;15.63;9.63;;;6.80;99.90;;;;;;809927;176;26580;-81
2024/04/19 04:01:23;;;;;;;11.97;7.80;;;6.70;99.90;;;;;;808748;177;27083;-81
2024/04/19 04:03:52;;;;;;;14.93;9.23;;;6.70;99.90;;;;;;808546;177;26491;-83
2024/04/19 04:06:18;;;;;;;10.63;5.80;;;6.80;99.90;;;;;;807513;177;26450;-82
2024/04/19 04:08:46;;;;;;;9.07;6.50;;;6.70;99.90;;;;;;807791;174;26430;-84
2024/04/19 04:11:13;;;;;;;13.77;7.87;;;6.70;99.90;;;;;;802291;177;26432;-81
2024/04/19 04:13:40;;;;;;;9.37;5.53;;;6.70;99.90;;;;;;808955;177;26455;-80
2024/04/19 04:16:06;;;;;;;12.57;8.00;;;6.70;99.90;;;;;;805203;177;26436;-82
2024/04/19 04:18:34;;;;;;;14.57;7.07;;;6.80;99.90;;;;;;810659;174;26573;-80
2024/04/19 04:21:00;;;;;;;6.80;5.23;;;6.70;99.90;;;;;;809385;177;26441;-80
2024/04/19 04:23:26;;;;;;;11.30;7.20;;;6.70;99.90;;;;;;810934;177;26423;-85
2024/04/19 04:25:53;;;;;;;11.67;7.80;;;6.70;99.90;;;;;;810072;177;26439;-83
2024/04/19 04:28:20;;;;;;;12.60;6.90;;;6.70;99.90;;;;;;805818;177;27663;-82
2024/04/19 04:30:46;;;;;;;9.37;6.03;;;6.70;99.90;;;;;;807526;177;27011;-80
2024/04/19 04:33:13;;;;;;;10.53;5.40;;;6.60;99.90;;;;;;806346;177;26435;-81
2024/04/19 04:35:39;;;;;;;7.57;3.83;;;6.60;99.90;;;;;;806679;177;26454;-80
2024/04/19 04:38:06;;;;;;;6.67;4.70;;;6.60;99.90;;;;;;807864;177;26589;-82
2024/04/19 04:40:33;;;;;;;7.43;4.73;;;6.50;99.90;;;;;;803488;177;26473;-81
2024/04/19 04:42:59;;;;;;;9.70;4.67;;;6.50;99.90;;;;;;811736;176;26475;-79
2024/04/19 04:45:26;;;;;;;11.33;5.07;;;6.50;99.90;;;;;;812270;176;26454;-82
2024/04/19 04:47:53;;;;;;;8.03;4.77;;;6.50;99.90;;;;;;811724;177;26459;-82
2024/04/19 04:50:19;;;;;;;6.33;4.77;;;6.60;99.90;;;;;;811704;176;26423;-83
2024/04/19 04:52:46;;;;;;;6.60;4.40;;;6.70;99.90;;;;;;805113;177;26446;-81
2024/04/19 04:55:14;;;;;;;4.03;3.07;;;6.60;99.90;;;;;;803122;177;27193;-83
2024/04/19 04:57:39;;;;;;;5.90;2.73;;;6.50;99.90;;;;;;810886;177;26455;-81
2024/04/19 05:00:08;;;;;;;7.57;4.17;;;6.40;99.90;;;;;;811326;176;26475;-81
2024/04/19 05:02:34;;;;;;;7.77;3.70;;;6.40;99.90;;;;;;811192;177;26462;-83
2024/04/19 05:05:01;;;;;;;4.30;3.10;;;6.40;99.90;;;;;;811906;174;26470;-84
2024/04/19 05:07:28;;;;;;;7.83;4.33;;;6.40;99.90;;;;;;797046;177;27012;-81
2024/04/19 05:09:56;;;;;;;5.50;3.03;;;6.40;99.90;;;;;;806708;177;26460;-81
2024/04/19 05:12:22;;;;;;;7.10;3.23;;;6.40;99.90;;;;;;803906;177;26421;-80
2024/04/19 05:14:49;;;;;;;6.33;3.43;;;6.40;99.90;;;;;;808146;177;26458;-80
2024/04/19 05:17:16;;;;;;;5.10;2.90;;;6.40;99.90;;;;;;811138;174;26580;-80
2024/04/19 05:19:42;;;;;;;3.47;2.90;;;6.30;99.90;;;;;;810974;174;26471;-81
2024/04/19 05:22:09;;;;;;;5.90;3.83;;;6.30;99.90;;;;;;811436;177;27057;-81
2024/04/19 05:24:35;;;;;;;2.80;2.43;;;6.30;99.90;;;;;;809541;175;26457;-80
2024/04/19 05:27:02;;;;;;;2.53;2.30;;;6.30;99.90;;;;;;808380;175;26443;-81
2024/04/19 05:29:29;;;;;;;3.90;2.63;;;6.30;99.90;;;;;;810335;174;26436;-81
2024/04/19 05:31:55;;;;;;;6.33;3.07;;;6.30;99.90;;;;;;808916;177;26452;-81
2024/04/19 05:34:22;;;;;;;3.43;2.63;;;6.30;99.90;;;;;;810143;177;26462;-81
2024/04/19 05:36:49;;;;;;;4.43;2.43;;;6.30;99.90;;;;;;810812;177;26434;-79
2024/04/19 05:39:15;;;;;;;4.13;2.90;;;6.20;99.90;;;;;;807930;177;26443;-80
2024/04/19 05:41:42;;;;;;;2.40;1.87;;;6.30;99.90;;;;;;810385;177;27613;-79
2024/04/19 05:44:08;;;;;;;5.37;2.40;;;6.30;99.90;;;;;;804982;174;26474;-81
2024/04/19 05:46:35;;;;;;;2.43;2.23;;;6.30;99.90;;;;;;809502;177;26450;-81
2024/04/19 05:49:02;;;;;;;2.90;1.77;;;6.20;99.90;;;;;;805832;177;26450;-80
2024/04/19 05:51:28;;;;;;;5.53;2.40;;;6.20;99.90;;;;;;806962;177;26437;-80
2024/04/19 05:53:55;;;;;;;5.00;3.20;;;6.10;99.90;;;;;;807806;175;26467;-82
2024/04/19 05:56:22;;;;;;;1.93;1.67;;;6.20;99.90;;;;;;806202;177;26475;-81
2024/04/19 05:58:48;;;;;;;1.60;1.50;;;6.10;99.90;;;;;;811723;174;26454;-79
2024/04/19 06:01:15;;;;;;;1.80;1.60;;;6.10;99.90;;;;;;811843;177;26452;-81
2024/04/19 06:03:41;;;;;;;4.33;2.60;;;6.10;99.90;;;;;;810771;174;26973;-81
2024/04/19 06:06:08;;;;;;;3.70;2.67;;;6.20;99.90;;;;;;811207;177;26586;-81
2024/04/19 06:08:37;;;;;;;2.40;2.20;;;6.20;99.90;;;;;;812245;174;26442;-81
2024/04/19 06:11:03;;;;;;;3.73;2.30;;;6.20;99.90;;;;;;806463;174;26449;-82
2024/04/19 06:13:30;;;;;;;2.77;2.57;;;6.20;99.90;;;;;;808336;177;26447;-80
2024/04/19 06:15:56;;;;;;;4.17;2.67;;;6.30;99.90;;;;;;807883;177;26441;-81
2024/04/19 06:18:23;;;;;;;1.83;1.63;;;6.30;99.90;;;;;;808867;177;26430;-80
2024/04/19 06:20:50;;;;;;;2.20;2.00;;;6.30;99.90;;;;;;808364;177;26431;-80
2024/04/19 06:23:16;;;;;;;2.53;2.20;;;6.30;99.90;;;;;;811318;177;26462;-81
2024/04/19 06:25:43;;;;;;;1.60;1.50;;;6.30;99.90;;;;;;803902;176;26475;-82
2024/04/19 06:28:09;;;;;;;2.30;2.00;;;6.40;99.90;;;;;;806874;177;26436;-81
2024/04/19 06:30:36;;;;;;;2.70;1.80;;;6.40;99.90;;;;;;807365;177;26432;-81
2024/04/19 06:33:03;;;;;;;2.43;2.23;;;6.40;99.90;;;;;;809281;177;26431;-83
2024/04/19 06:35:32;;;;;;;2.37;2.17;;;6.50;99.90;;;;;;805508;177;26460;-82
2024/04/19 06:37:56;;;;;;;3.43;2.33;;;6.50;99.90;;;;;;810192;177;26444;-82
2024/04/19 06:40:23;;;;;;;6.47;3.80;;;6.50;99.90;;;;;;810163;177;26485;-84
2024/04/19 06:42:49;;;;;;;5.63;5.03;;;6.60;99.90;;;;;;810163;177;26570;-84
2024/04/19 06:45:16;;;;;;;3.87;3.10;;;6.60;99.90;;;;;;807755;177;26499;-80
2024/04/19 06:47:43;;;;;;;2.83;2.47;;;6.70;99.90;;;;;;811100;177;26428;-80
2024/04/19 06:50:09;;;;;;;4.10;3.00;;;6.70;99.90;;;;;;811272;174;26426;-83
2024/04/19 06:52:36;;;;;;;4.73;3.73;;;6.80;99.90;;;;;;810632;174;26436;-82
2024/04/19 06:55:02;;;;;;;4.80;3.30;;;6.90;99.90;;;;;;807922;177;27055;-82
2024/04/19 06:57:29;;;;;;;3.17;2.60;;;7.00;99.90;;;;;;806150;177;26430;-81
2024/04/19 06:59:56;;;;;;;3.40;2.17;;;7.00;99.90;;;;;;804877;177;26434;-81
2024/04/19 07:02:22;;;;;;;4.20;3.70;;;7.10;99.90;;;;;;804779;174;26447;-83
2024/04/19 07:04:49;;;;;;;7.77;6.53;;;7.10;99.90;;;;;;812690;174;26451;-83
2024/04/19 07:07:15;;;;;;;3.53;3.00;;;7.20;99.90;;;;;;811041;174;26439;-82
2024/04/19 07:09:42;;;;;;;4.13;3.20;;;7.20;99.90;;;;;;810036;177;26489;-83
2024/04/19 07:23:05;;;;;;;5.20;2.87;;;7.50;99.90;;;;;;810757;176;26416;-82
2024/04/19 07:25:32;;;;;;;3.20;2.83;;;7.60;99.90;;;;;;808126;174;26459;-81
2024/04/19 07:27:58;;;;;;;4.40;3.27;;;7.60;99.90;;;;;;806845;176;26963;-80
2024/04/19 07:30:25;;;;;;;3.57;3.13;;;7.60;99.90;;;;;;806101;174;26431;-80
2024/04/19 07:32:52;;;;;;;4.70;3.43;;;7.60;99.90;;;;;;807227;177;26437;-79
2024/04/19 07:35:18;;;;;;;6.13;4.33;;;7.70;99.90;;;;;;801853;177;26460;-80
2024/04/19 07:37:45;;;;;;;6.20;3.83;;;7.70;99.90;;;;;;805076;176;26995;-82
2024/04/19 07:40:11;;;;;;;6.17;4.10;;;7.70;99.90;;;;;;808466;174;26492;-82
2024/04/19 07:42:38;;;;;;;4.53;3.60;;;7.80;99.90;;;;;;805860;177;26989;-79
2024/04/19 07:45:07;;;;;;;3.73;3.23;;;7.90;99.90;;;;;;807697;171;26499;-77
2024/04/19 07:47:33;;;;;;;3.30;3.00;;;7.90;99.90;;;;;;803286;174;26496;-77
2024/04/19 07:50:00;;;;;;;6.10;4.20;;;7.90;99.90;;;;;;795282;179;27028;-78
2024/04/19 07:52:26;;;;;;;4.03;3.40;;;7.90;99.90;;;;;;807042;174;26486;-77
2024/04/19 07:54:53;;;;;;;5.90;4.20;;;7.90;99.90;;;;;;804869;178;27006;-78
2024/04/19 07:57:20;;;;;;;3.17;2.83;;;7.90;99.90;;;;;;787571;181;26528;-78
2024/04/19 07:59:47;;;;;;;6.63;4.67;;;8.00;99.90;;;;;;781389;181;26501;-78
2024/04/19 08:02:13;;;;;;;4.40;3.63;;;8.00;99.90;;;;;;798569;178;26449;-78
2024/04/19 08:04:40;;;;;;;4.57;4.07;;;8.00;99.90;;;;;;801595;177;26453;-78
2024/04/19 08:07:07;;;;;;;4.93;3.80;;;8.10;99.90;;;;;;793178;180;26625;-78
2024/04/19 08:09:35;;;;;;;4.83;3.77;;;8.10;99.90;;;;;;791149;180;26439;-78
2024/04/19 08:12:03;;;;;;;6.97;3.57;;;8.10;99.90;;;;;;788497;181;26453;-78
2024/04/19 08:14:29;;;;;;;11.40;6.13;;;8.20;99.90;;;;;;791290;181;27041;-77
2024/04/19 08:16:56;;;;;;;5.13;4.13;;;8.30;99.90;;;;;;789591;179;26520;-77
2024/04/19 08:19:23;;;;;;;9.20;6.20;;;8.30;99.90;;;;;;809518;177;27038;-77
2024/04/19 08:21:51;;;;;;;9.10;4.77;;;8.30;99.90;;;;;;792095;177;27029;-78
2024/04/19 08:24:17;;;;;;;10.23;6.20;;;8.40;99.90;;;;;;793346;181;27037;-79
2024/04/19 08:26:44;;;;;;;11.10;7.07;;;8.40;99.90;;;;;;790329;180;26465;-79
2024/04/19 08:29:11;;;;;;;9.60;6.43;;;8.50;99.90;;;;;;790051;179;26599;-76
2024/04/19 08:31:37;;;;;;;8.47;6.93;;;8.50;99.90;;;;;;791348;181;27024;-79
2024/04/19 08:34:04;;;;;;;8.23;5.60;;;8.60;99.90;;;;;;789534;180;26446;-79
2024/04/19 08:36:35;;;;;;;12.93;9.10;;;8.60;99.90;;;;;;789146;180;26500;-78
2024/04/19 08:39:02;;;;;;;10.00;7.50;;;8.70;99.90;;;;;;787616;181;26453;-78
2024/04/19 08:41:29;;;;;;;12.23;6.43;;;8.70;99.90;;;;;;808175;177;26457;-78
2024/04/19 08:43:55;;;;;;;11.50;7.97;;;8.80;99.90;;;;;;791129;180;27007;-80
2024/04/19 08:46:21;;;;;;;7.87;7.07;;;8.80;99.90;;;;;;791532;180;26526;-79
2024/04/19 08:48:49;;;;;;;7.20;6.23;;;8.90;99.90;;;;;;786368;181;26496;-79
2024/04/19 08:51:15;;;;;;;9.40;7.37;;;9.00;99.90;;;;;;799949;179;26445;-78
2024/04/19 08:53:42;;;;;;;9.30;7.53;;;9.00;99.90;;;;;;792917;181;26510;-78
2024/04/19 08:56:09;;;;;;;8.83;6.47;;;9.20;99.90;;;;;;788297;180;26614;-77
2024/04/19 08:58:35;;;;;;;9.50;7.50;;;9.20;99.90;;;;;;790217;180;27017;-79
2024/04/19 09:01:02;;;;;;;9.00;6.97;;;9.30;99.90;;;;;;790284;180;26609;-79
2024/04/19 09:03:28;;;;;;;9.47;7.87;;;9.40;99.90;;;;;;788854;180;26461;-78
2024/04/19 09:05:56;;;;;;;8.43;6.77;;;9.40;99.90;;;;;;789675;181;26642;-78
2024/04/19 09:08:23;;;;;;;12.97;7.97;;;9.40;99.90;;;;;;791784;181;26670;-79
2024/04/19 09:10:51;;;;;;;13.27;9.40;;;9.40;99.90;;;;;;800713;179;26465;-79
2024/04/19 09:13:17;;;;;;;20.33;10.77;;;9.40;99.90;;;;;;793429;178;26475;-76
2024/04/19 09:15:46;;;;;;;14.40;10.83;;;9.40;99.90;;;;;;794676;180;26480;-77
2024/04/19 09:18:13;;;;;;;12.23;9.60;;;9.40;99.90;;;;;;783596;181;26532;-78
2024/04/19 09:20:44;;;;;;;11.97;9.07;;;9.50;99.90;;;;;;797282;179;26445;-78
2024/04/19 09:23:11;;;;;;;19.23;13.83;;;9.70;99.90;;;;;;795958;179;26452;-79
2024/04/19 09:25:39;;;;;;;20.07;13.30;;;9.70;99.90;;;;;;793375;179;26480;-79
2024/04/19 09:28:05;;;;;;;17.53;10.93;;;9.70;99.90;;;;;;796426;178;26437;-80
2024/04/19 09:30:32;;;;;;;13.97;10.43;;;9.70;99.90;;;;;;802460;178;26453;-78
2024/04/19 09:32:58;;;;;;;17.40;11.13;;;9.70;99.90;;;;;;792780;180;26455;-80
2024/04/19 09:35:28;;;;;;;13.50;9.47;;;9.80;99.90;;;;;;799804;178;26434;-79
2024/04/19 09:37:55;;;;;;;15.27;10.67;;;9.80;99.90;;;;;;791598;179;26562;-80
2024/04/19 09:40:21;;;;;;;14.10;9.83;;;9.80;99.90;;;;;;804082;179;26478;-78
2024/04/19 09:42:48;;;;;;;15.70;11.53;;;9.80;99.90;;;;;;793403;179;26474;-80
2024/04/19 09:45:14;;;;;;;18.17;12.90;;;9.70;99.90;;;;;;807710;177;27033;-79
2024/04/19 09:47:41;;;;;;;14.67;9.20;;;9.70;99.90;;;;;;789615;179;26473;-79
2024/04/19 09:50:08;;;;;;;11.57;8.83;;;9.70;99.90;;;;;;798709;179;26414;-77
2024/04/19 09:52:34;;;;;;;16.50;11.43;;;9.70;99.90;;;;;;790077;182;26444;-80
2024/04/19 09:55:08;;;;;;;17.07;11.83;;;9.70;99.90;;;;;;795290;178;26435;-80
2024/04/19 09:57:34;;;;;;;18.13;12.73;;;9.80;99.90;;;;;;787363;180;26471;-77
2024/04/19 10:00:01;;;;;;;18.30;11.80;;;9.90;99.90;;;;;;800535;179;26545;-78
2024/04/19 10:02:27;;;;;;;14.90;11.37;;;10.00;99.90;;;;;;792195;178;27036;-78
2024/04/19 10:04:54;;;;;;;13.60;11.17;;;10.10;99.90;;;;;;789299;181;26475;-79
2024/04/19 10:07:21;;;;;;;21.33;13.43;;;10.20;99.90;;;;;;790984;181;26491;-80
2024/04/19 10:09:47;;;;;;;22.70;15.33;;;10.20;99.90;;;;;;786556;181;26795;-80
2024/04/19 10:12:15;;;;;;;18.93;13.27;;;10.40;99.90;;;;;;800191;179;26502;-79
2024/04/19 10:14:41;;;;;;;15.37;10.23;;;10.50;99.90;;;;;;788496;179;26472;-79
2024/04/19 10:17:07;;;;;;;17.23;12.00;;;10.60;99.90;;;;;;796256;179;26973;-80
2024/04/19 10:19:35;;;;;;;35.97;20.63;;;10.60;99.90;;;;;;791007;180;26456;-79
2024/04/19 10:22:02;;;;;;;17.03;11.70;;;10.60;99.90;;;;;;794868;179;26600;-79
2024/04/19 10:24:28;;;;;;;20.47;14.00;;;10.60;99.90;;;;;;790463;180;27033;-79
2024/04/19 10:26:54;;;;;;;20.50;11.43;;;10.60;99.90;;;;;;790254;181;26487;-78
2024/04/19 10:29:21;;;;;;;15.00;10.57;;;10.60;99.90;;;;;;789219;180;26484;-78
2024/04/19 10:31:48;;;;;;;25.40;16.63;;;10.60;99.90;;;;;;790106;180;26546;-78
2024/04/19 10:34:14;;;;;;;12.50;7.53;;;10.60;99.90;;;;;;791149;179;26487;-78
2024/04/19 10:36:41;;;;;;;12.73;9.50;;;10.40;99.90;;;;;;790923;180;26686;-79
2024/04/19 10:39:07;;;;;;;19.37;12.23;;;10.20;99.90;;;;;;796189;176;26458;-80
2024/04/19 10:41:34;;;;;;;16.57;11.40;;;10.10;99.90;;;;;;801075;179;26838;-79
2024/04/19 10:44:01;;;;;;;15.20;10.83;;;10.00;99.90;;;;;;793957;179;26451;-79
2024/04/19 10:46:27;;;;;;;17.37;11.63;;;10.00;99.90;;;;;;794705;180;26463;-80
2024/04/19 10:48:54;;;;;;;20.77;13.03;;;9.90;99.90;;;;;;792722;180;27072;-79
2024/04/19 10:51:20;;;;;;;32.60;18.33;;;9.90;99.90;;;;;;791505;181;26455;-80
2024/04/19 10:53:47;;;;;;;18.63;12.80;;;9.90;99.90;;;;;;787318;180;26471;-79
2024/04/19 10:56:14;;;;;;;23.63;15.13;;;10.00;99.90;;;;;;789061;181;26468;-78
2024/04/19 10:58:40;;;;;;;22.90;13.63;;;10.00;99.90;;;;;;787490;180;26466;-77
2024/04/19 11:01:07;;;;;;;15.97;10.23;;;10.10;99.90;;;;;;789831;180;28076;-79
2024/04/19 11:03:33;;;;;;;15.47;10.03;;;10.10;99.90;;;;;;806543;174;26467;-78
2024/04/19 11:06:00;;;;;;;16.80;11.80;;;10.00;99.90;;;;;;813735;169;26443;-79
2024/04/19 11:08:27;;;;;;;11.37;9.10;;;10.00;99.90;;;;;;819303;174;26411;-79
2024/04/19 11:10:59;;;;;;;9.37;6.90;;;10.00;99.90;;;;;;823053;174;26423;-80
2024/04/19 11:13:26;;;;;;;6.87;5.20;;;10.10;99.90;;;;;;818308;174;26407;-80
2024/04/19 11:15:53;;;;;;;13.97;8.77;;;10.00;99.90;;;;;;821828;173;26424;-78
2024/04/19 11:18:21;;;;;;;13.50;9.80;;;10.00;99.90;;;;;;799769;176;26474;-78
2024/04/19 11:20:48;;;;;;;12.53;9.50;;;10.00;99.90;;;;;;784901;181;26484;-80
2024/04/19 11:23:18;;;;;;;16.60;9.63;;;9.90;99.90;;;;;;795870;179;26458;-80
2024/04/19 11:25:51;;;;;;;17.73;10.70;;;9.70;99.90;;;;;;801702;176;26443;-79
2024/04/19 11:28:17;;;;;;;17.93;10.40;;;9.60;99.90;;;;;;796328;177;26430;-78
2024/04/19 11:30:44;;;;;;;8.77;6.03;;;9.60;99.90;;;;;;802456;176;26981;-79
2024/04/19 11:33:12;;;;;;;9.00;4.30;;;9.40;99.90;;;;;;812884;176;26971;-79
2024/04/19 11:35:40;;;;;;;8.20;4.70;;;9.20;99.90;;;;;;806477;176;26575;-81
2024/04/19 11:38:11;;;;;;;7.13;3.30;;;9.10;99.90;;;;;;800805;177;26482;-79
2024/04/19 11:40:38;;;;;;;6.43;2.93;;;8.90;99.90;;;;;;814900;176;26969;-79
2024/04/19 11:43:06;;;;;;;7.40;3.23;;;8.80;99.90;;;;;;814272;176;26414;-80
2024/04/19 11:45:36;;;;;;;9.50;4.30;;;8.80;99.90;;;;;;804113;176;26499;-79
2024/04/19 11:48:04;;;;;;;8.20;4.40;;;8.70;99.90;;;;;;802667;177;26458;-78
2024/04/19 11:50:30;;;;;;;6.33;2.77;;;8.50;99.90;;;;;;798558;177;26449;-78
2024/04/19 11:52:58;;;;;;;4.33;3.07;;;8.50;99.90;;;;;;810884;175;26990;-81
2024/04/19 11:55:25;;;;;;;2.90;2.60;;;8.50;99.90;;;;;;812614;176;26436;-79
2024/04/19 11:57:52;;;;;;;8.53;4.23;;;8.50;99.90;;;;;;809611;176;26410;-79
2024/04/19 12:00:19;;;;;;;4.43;2.90;;;8.40;99.90;;;;;;811772;176;26938;-79
2024/04/19 12:02:44;;;;;;;9.03;3.93;;;8.40;99.90;;;;;;810747;176;27035;-78
2024/04/19 12:05:11;;;;;;;5.30;4.00;;;8.50;99.90;;;;;;809485;177;26421;-80
2024/04/19 12:07:44;;;;;;;11.77;4.20;;;8.70;99.90;;;;;;811652;176;26409;-80
2024/04/19 12:10:11;;;;;;;8.73;3.80;;;8.90;99.90;;;;;;804270;177;26424;-80
2024/04/19 12:12:38;;;;;;;9.43;4.13;;;9.00;99.90;;;;;;798984;176;26470;-79
2024/04/19 12:15:04;;;;;;;11.50;5.30;;;9.10;99.90;;;;;;790825;179;26446;-78
2024/04/19 12:17:33;;;;;;;6.43;4.60;;;9.10;99.90;;;;;;808827;176;26433;-78
2024/04/19 12:20:03;;;;;;;9.17;5.60;;;9.20;99.90;;;;;;816071;175;26422;-80
2024/04/19 12:22:30;;;;;;;11.10;5.00;;;9.30;99.90;;;;;;816187;175;27609;-79
2024/04/19 12:24:56;;;;;;;15.53;6.63;;;9.50;99.90;;;;;;816064;175;26412;-79
2024/04/19 12:27:26;;;;;;;7.33;4.00;;;9.90;99.90;;;;;;818222;175;26399;-79
2024/04/19 12:29:52;;;;;;;6.47;3.40;;;10.10;99.90;;;;;;818244;175;26431;-80
2024/04/19 12:32:21;;;;;;;6.33;2.73;;;10.10;99.90;;;;;;803229;177;26485;-77
2024/04/19 12:34:48;;;;;;;4.50;2.37;;;10.00;99.90;;;;;;808036;176;26400;-78
2024/04/19 12:37:15;;;;;;;5.10;3.20;;;10.00;99.90;;;;;;818195;176;26535;-79
2024/04/19 12:39:41;;;;;;;7.47;2.90;;;10.10;99.90;;;;;;817822;175;26445;-79
2024/04/19 12:42:08;;;;;;;7.40;3.20;;;10.10;99.90;;;;;;817115;175;26446;-80
2024/04/19 12:44:53;;;;;;;8.03;2.73;;;10.00;99.90;;;;;;819083;175;26405;-79
2024/04/19 12:49:52;;;;;;;6.53;3.10;;;10.30;99.90;;;;;;808334;177;26487;-79
2024/04/19 12:52:19;;;;;;;2.20;1.70;;;10.50;99.90;;;;;;808167;177;26562;-78
2024/04/19 12:54:45;;;;;;;6.93;2.60;;;10.30;99.90;;;;;;812528;176;27314;-79
2024/04/19 12:57:12;;;;;;;4.57;2.70;;;10.30;99.90;;;;;;807505;169;26502;-77
2024/04/19 12:59:39;;;;;;;6.93;2.90;;;10.10;99.90;;;;;;804139;177;26978;-77
2024/04/19 13:05:10;;;;;;;14.83;6.70;;;10.10;99.90;;;;;;807804;169;27188;-80
2024/04/19 13:08:13;;;;;;;;;;;;;;;;;;;;;